Time,TemperatureF,DewpointF,PressureIn,WindDirection,WindDirectionDegrees,WindSpeedMPH,WindSpeedGustMPH,Humidity,HourlyPrecipIn,Conditions,Clouds,dailyrainin,SoftwareType,DateUTC
2013-11-14 00:00:00,34.5,31.6,29.85,SW,216,2.0,4.0,89,0.00,,,0.00,VWS V14.01,2013-11-14 06:00:00,
2013-11-14 00:01:00,34.4,31.5,29.85,SW,228,2.0,3.0,89,0.00,,,0.00,VWS V14.01,2013-11-14 06:01:00,
2013-11-14 00:06:00,34.1,31.2,29.85,SW,228,1.0,3.0,89,0.00,,,0.00,VWS V14.01,2013-11-14 06:06:00,
2013-11-14 00:11:00,34.2,31.6,29.84,SW,227,1.0,3.0,90,0.00,,,0.00,VWS V14.01,2013-11-14 06:11:00,
2013-11-14 00:16:00,34.3,31.7,29.84,SW,227,1.0,3.0,90,0.00,,,0.00,VWS V14.01,2013-11-14 06:16:00,
2013-11-14 00:21:00,34.3,31.7,29.84,SW,227,2.0,3.0,90,0.00,,,0.00,VWS V14.01,2013-11-14 06:21:00,
2013-11-14 00:26:00,34.7,32.1,29.85,SW,227,2.0,3.0,90,0.00,,,0.00,VWS V14.01,2013-11-14 06:26:00,
2013-11-14 00:30:00,34.8,31.9,29.84,SW,227,0.0,1.0,89,0.00,,,0.00,VWS V14.01,2013-11-14 06:30:00,
2013-11-14 00:35:00,34.7,32.1,29.84,SW,227,1.0,1.0,90,0.00,,,0.00,VWS V14.01,2013-11-14 06:35:00,
2013-11-14 00:40:00,34.5,31.9,29.84,SW,227,1.0,1.0,90,0.00,,,0.00,VWS V14.01,2013-11-14 06:40:00,
2013-11-14 00:45:00,34.3,31.7,29.83,SW,227,1.0,1.0,90,0.00,,,0.00,VWS V14.01,2013-11-14 06:45:00,
2013-11-14 00:51:00,34.2,31.6,29.84,SW,227,2.0,3.0,90,0.00,,,0.00,VWS V14.01,2013-11-14 06:51:00,
2013-11-14 00:56:00,34.8,32.2,29.84,SW,230,3.0,4.0,90,0.00,,,0.00,VWS V14.01,2013-11-14 06:56:00,
2013-11-14 01:00:00,35.1,32.5,29.84,SW,229,4.0,4.0,90,0.00,,,0.00,VWS V14.01,2013-11-14 07:00:00,
2013-11-14 01:01:00,35.2,32.6,29.84,SW,229,3.0,4.0,90,0.00,,,0.00,VWS V14.01,2013-11-14 07:01:00,
2013-11-14 01:06:00,35.3,32.4,29.84,SW,229,1.0,4.0,89,0.00,,,0.00,VWS V14.01,2013-11-14 07:06:00,
2013-11-14 01:11:00,35.3,32.7,29.83,SW,229,1.0,4.0,90,0.00,,,0.00,VWS V14.01,2013-11-14 07:11:00,
2013-11-14 01:16:00,35.5,32.6,29.83,SW,229,1.0,4.0,89,0.00,,,0.00,VWS V14.01,2013-11-14 07:16:00,
2013-11-14 01:21:00,35.5,32.6,29.84,SW,229,2.0,4.0,89,0.00,,,0.00,VWS V14.01,2013-11-14 07:21:00,
2013-11-14 01:26:00,35.5,32.9,29.83,SW,229,0.0,4.0,90,0.00,,,0.00,VWS V14.01,2013-11-14 07:26:00,
2013-11-14 01:31:00,35.8,33.2,29.83,SW,229,1.0,1.0,90,0.00,,,0.00,VWS V14.01,2013-11-14 07:31:00,
2013-11-14 01:36:00,35.9,33.0,29.83,SSW,209,1.0,4.0,89,0.00,,,0.00,VWS V14.01,2013-11-14 07:36:00,
2013-11-14 01:41:00,36.0,33.1,29.82,SW,225,0.0,4.0,89,0.00,,,0.00,VWS V14.01,2013-11-14 07:41:00,
2013-11-14 01:46:00,36.0,33.1,29.83,SW,225,0.0,4.0,89,0.00,,,0.00,VWS V14.01,2013-11-14 07:46:00,
2013-11-14 01:51:00,35.9,33.0,29.83,SW,225,0.0,4.0,89,0.00,,,0.00,VWS V14.01,2013-11-14 07:51:00,
2013-11-14 01:56:00,35.8,32.9,29.83,SW,225,1.0,4.0,89,0.00,,,0.00,VWS V14.01,2013-11-14 07:56:00,
2013-11-14 02:00:00,35.8,32.9,29.82,SW,225,2.0,4.0,89,0.00,,,0.00,VWS V14.01,2013-11-14 08:00:00,
2013-11-14 02:01:00,35.8,32.9,29.83,SW,225,2.0,3.0,89,0.00,,,0.00,VWS V14.01,2013-11-14 08:01:00,
2013-11-14 02:06:00,35.8,32.9,29.82,SW,225,2.0,3.0,89,0.00,,,0.00,VWS V14.01,2013-11-14 08:06:00,
2013-11-14 02:11:00,35.9,33.0,29.82,SW,225,1.0,3.0,89,0.00,,,0.00,VWS V14.01,2013-11-14 08:11:00,
2013-11-14 02:16:00,35.8,32.9,29.82,SW,225,0.0,3.0,89,0.00,,,0.00,VWS V14.01,2013-11-14 08:16:00,
2013-11-14 02:21:00,35.6,32.7,29.82,SW,225,0.0,3.0,89,0.00,,,0.00,VWS V14.01,2013-11-14 08:21:00,
2013-11-14 02:26:00,35.5,32.6,29.82,SW,225,1.0,3.0,89,0.00,,,0.00,VWS V14.01,2013-11-14 08:26:00,
2013-11-14 02:30:00,35.5,32.9,29.82,SW,225,0.0,3.0,90,0.00,,,0.00,VWS V14.01,2013-11-14 08:30:00,
2013-11-14 02:31:00,35.5,32.6,29.82,SW,225,0.0,1.0,89,0.00,,,0.00,VWS V14.01,2013-11-14 08:31:00,
2013-11-14 02:36:00,35.4,32.5,29.82,SW,225,0.0,1.0,89,0.00,,,0.00,VWS V14.01,2013-11-14 08:36:00,
2013-11-14 02:41:00,35.3,32.7,29.82,SW,225,1.0,2.0,90,0.00,,,0.00,VWS V14.01,2013-11-14 08:41:00,
2013-11-14 02:46:00,35.3,32.7,29.82,SW,225,1.0,2.0,90,0.00,,,0.00,VWS V14.01,2013-11-14 08:46:00,
2013-11-14 02:51:00,35.3,32.7,29.82,SW,225,0.0,2.0,90,0.00,,,0.00,VWS V14.01,2013-11-14 08:51:00,
2013-11-14 02:56:00,35.2,32.6,29.82,SW,225,1.0,2.0,90,0.00,,,0.00,VWS V14.01,2013-11-14 08:56:00,
2013-11-14 03:00:00,35.2,32.6,29.82,SW,225,0.0,2.0,90,0.00,,,0.00,VWS V14.01,2013-11-14 09:00:00,
2013-11-14 03:01:00,35.2,32.6,29.82,SW,225,0.0,1.0,90,0.00,,,0.00,VWS V14.01,2013-11-14 09:01:00,
2013-11-14 03:06:00,35.0,32.4,29.82,SW,225,0.0,1.0,90,0.00,,,0.00,VWS V14.01,2013-11-14 09:06:00,
2013-11-14 03:11:00,35.0,32.4,29.82,SW,225,0.0,1.0,90,0.00,,,0.00,VWS V14.01,2013-11-14 09:11:00,
2013-11-14 03:16:00,35.0,32.4,29.82,SW,225,0.0,1.0,90,0.00,,,0.00,VWS V14.01,2013-11-14 09:16:00,
2013-11-14 03:21:00,35.0,32.4,29.82,SW,225,0.0,1.0,90,0.00,,,0.00,VWS V14.01,2013-11-14 09:21:00,
2013-11-14 03:26:00,34.3,31.7,29.82,SW,225,1.0,1.0,90,0.00,,,0.00,VWS V14.01,2013-11-14 09:26:00,
2013-11-14 03:30:00,34.0,31.6,29.82,SW,225,0.0,2.0,91,0.00,,,0.00,VWS V14.01,2013-11-14 09:30:00,
2013-11-14 03:31:00,34.0,31.6,29.82,SW,225,1.0,1.0,91,0.00,,,0.00,VWS V14.01,2013-11-14 09:31:00,
2013-11-14 03:36:00,34.1,31.8,29.82,SW,225,1.0,2.0,91,0.00,,,0.00,VWS V14.01,2013-11-14 09:36:00,
2013-11-14 03:41:00,34.1,32.0,29.83,SW,225,2.0,2.0,92,0.00,,,0.00,VWS V14.01,2013-11-14 09:41:00,
2013-11-14 03:46:00,34.0,31.6,29.82,SW,225,0.0,2.0,91,0.00,,,0.00,VWS V14.01,2013-11-14 09:46:00,
2013-11-14 03:51:00,34.2,32.1,29.82,SW,225,0.0,2.0,92,0.00,,,0.00,VWS V14.01,2013-11-14 09:51:00,
2013-11-14 03:56:00,34.4,32.0,29.82,SW,225,0.0,2.0,91,0.00,,,0.00,VWS V14.01,2013-11-14 09:56:00,
2013-11-14 04:00:00,34.3,31.7,29.82,SW,225,0.0,2.0,90,0.00,,,0.00,VWS V14.01,2013-11-14 10:00:00,
2013-11-14 04:01:00,34.2,31.9,29.82,SW,225,0.0,0.0,91,0.00,,,0.00,VWS V14.01,2013-11-14 10:01:00,
2013-11-14 04:06:00,34.0,31.6,29.81,SW,225,0.0,0.0,91,0.00,,,0.00,VWS V14.01,2013-11-14 10:06:00,
2013-11-14 04:11:00,33.9,31.6,29.81,SW,225,0.0,0.0,91,0.00,,,0.00,VWS V14.01,2013-11-14 10:11:00,
2013-11-14 04:16:00,33.5,31.4,29.81,SW,225,0.0,0.0,92,0.00,,,0.00,VWS V14.01,2013-11-14 10:16:00,
2013-11-14 04:21:00,33.3,31.2,29.81,SW,225,1.0,1.0,92,0.00,,,0.00,VWS V14.01,2013-11-14 10:21:00,
2013-11-14 04:26:00,33.1,31.3,29.80,SW,225,1.0,2.0,93,0.00,,,0.00,VWS V14.01,2013-11-14 10:26:00,
2013-11-14 04:30:00,33.1,31.3,29.80,SW,225,1.0,2.0,93,0.00,,,0.00,VWS V14.01,2013-11-14 10:30:00,
2013-11-14 04:31:00,33.1,31.3,29.80,SW,225,1.0,1.0,93,0.00,,,0.00,VWS V14.01,2013-11-14 10:31:00,
2013-11-14 04:36:00,32.5,30.7,29.80,SW,225,0.0,2.0,93,0.00,,,0.00,VWS V14.01,2013-11-14 10:36:00,
2013-11-14 04:41:00,32.5,31.0,29.80,SW,225,0.0,2.0,94,0.00,,,0.00,VWS V14.01,2013-11-14 10:41:00,
2013-11-14 04:46:00,32.4,30.9,29.80,SW,225,1.0,2.0,94,0.00,,,0.00,VWS V14.01,2013-11-14 10:46:00,
2013-11-14 04:51:00,32.0,30.5,29.80,SW,225,0.0,2.0,94,0.00,,,0.00,VWS V14.01,2013-11-14 10:51:00,
2013-11-14 04:56:00,31.6,30.1,29.80,SW,225,1.0,2.0,94,0.00,,,0.00,VWS V14.01,2013-11-14 10:56:00,
2013-11-14 05:01:00,31.5,30.2,29.80,SW,225,1.0,1.0,95,0.00,,,0.00,VWS V14.01,2013-11-14 11:01:00,
2013-11-14 05:06:00,31.6,30.3,29.80,SW,225,0.0,1.0,95,0.00,,,0.00,VWS V14.01,2013-11-14 11:06:00,
2013-11-14 05:11:00,31.5,30.2,29.80,SW,225,0.0,1.0,95,0.00,,,0.00,VWS V14.01,2013-11-14 11:11:00,
2013-11-14 05:16:00,30.5,29.0,29.80,SW,225,0.0,1.0,94,0.00,,,0.00,VWS V14.01,2013-11-14 11:16:00,
2013-11-14 05:21:00,30.4,29.1,29.80,SW,225,0.0,1.0,95,0.00,,,0.00,VWS V14.01,2013-11-14 11:21:00,
2013-11-14 05:26:00,30.3,29.3,29.81,SW,225,0.0,1.0,96,0.00,,,0.00,VWS V14.01,2013-11-14 11:26:00,
2013-11-14 05:30:00,30.4,29.4,29.81,SW,225,1.0,1.0,96,0.00,,,0.00,VWS V14.01,2013-11-14 11:30:00,
2013-11-14 05:31:00,30.5,29.5,29.81,SW,225,1.0,1.0,96,0.00,,,0.00,VWS V14.01,2013-11-14 11:31:00,
2013-11-14 05:36:00,30.7,29.7,29.81,SW,225,0.0,1.0,96,0.00,,,0.00,VWS V14.01,2013-11-14 11:36:00,
2013-11-14 05:41:00,30.8,29.8,29.80,SW,225,0.0,1.0,96,0.00,,,0.00,VWS V14.01,2013-11-14 11:41:00,
2013-11-14 05:46:00,30.8,29.8,29.80,SW,225,0.0,1.0,96,0.00,,,0.00,VWS V14.01,2013-11-14 11:46:00,
2013-11-14 05:51:00,30.5,29.5,29.80,SW,225,1.0,1.0,96,0.00,,,0.00,VWS V14.01,2013-11-14 11:51:00,
2013-11-14 05:56:00,29.8,28.8,29.79,SW,225,2.0,3.0,96,0.00,,,0.00,VWS V14.01,2013-11-14 11:56:00,
2013-11-14 06:00:00,29.6,28.6,29.80,SW,225,1.0,3.0,96,0.00,,,0.00,VWS V14.01,2013-11-14 12:00:00,
2013-11-14 06:01:00,29.6,28.6,29.80,SW,225,1.0,2.0,96,0.00,,,0.00,VWS V14.01,2013-11-14 12:01:00,
2013-11-14 06:06:00,29.7,28.7,29.80,SW,225,1.0,2.0,96,0.00,,,0.00,VWS V14.01,2013-11-14 12:06:00,
2013-11-14 06:11:00,30.0,29.0,29.81,SW,225,1.0,3.0,96,0.00,,,0.00,VWS V14.01,2013-11-14 12:11:00,
2013-11-14 06:16:00,30.4,29.6,29.81,SW,225,1.0,3.0,97,0.00,,,0.00,VWS V14.01,2013-11-14 12:16:00,
2013-11-14 06:21:00,30.2,29.2,29.81,SW,225,1.0,3.0,96,0.00,,,0.00,VWS V14.01,2013-11-14 12:21:00,
2013-11-14 06:26:00,30.2,29.2,29.81,SW,225,1.0,3.0,96,0.00,,,0.00,VWS V14.01,2013-11-14 12:26:00,
2013-11-14 06:30:00,30.2,29.2,29.81,WNW,288,2.0,3.0,96,0.00,,,0.00,VWS V14.01,2013-11-14 12:30:00,
2013-11-14 06:31:00,30.2,29.2,29.81,WNW,288,2.0,2.0,96,0.00,,,0.00,VWS V14.01,2013-11-14 12:31:00,
2013-11-14 06:36:00,30.2,29.2,29.82,WNW,288,1.0,2.0,96,0.00,,,0.00,VWS V14.01,2013-11-14 12:36:00,
2013-11-14 06:41:00,30.3,29.3,29.82,WNW,288,1.0,2.0,96,0.00,,,0.00,VWS V14.01,2013-11-14 12:41:00,
2013-11-14 06:46:00,30.7,29.7,29.81,WNW,288,2.0,2.0,96,0.00,,,0.00,VWS V14.01,2013-11-14 12:46:00,
2013-11-14 06:50:00,31.1,30.1,29.82,WNW,288,0.0,2.0,96,0.00,,,0.00,VWS V14.01,2013-11-14 12:50:00,
2013-11-14 06:55:00,30.6,29.6,29.82,WNW,288,1.0,2.0,96,0.00,,,0.00,VWS V14.01,2013-11-14 12:55:00,
2013-11-14 07:00:00,30.2,28.9,29.82,WNW,288,1.0,1.0,95,0.00,,,0.00,VWS V14.01,2013-11-14 13:00:00,
2013-11-14 07:05:00,30.4,29.4,29.82,WNW,288,1.0,1.0,96,0.00,,,0.00,VWS V14.01,2013-11-14 13:05:00,
2013-11-14 07:10:00,30.4,29.4,29.81,WNW,288,0.0,1.0,96,0.00,,,0.00,VWS V14.01,2013-11-14 13:10:00,
2013-11-14 07:15:00,30.7,29.7,29.81,WNW,288,2.0,2.0,96,0.00,,,0.00,VWS V14.01,2013-11-14 13:15:00,
2013-11-14 07:20:00,30.4,29.4,29.81,WNW,288,2.0,3.0,96,0.00,,,0.00,VWS V14.01,2013-11-14 13:20:00,
2013-11-14 07:25:00,29.5,28.2,29.81,WNW,288,1.0,3.0,95,0.00,,,0.00,VWS V14.01,2013-11-14 13:25:00,
2013-11-14 07:30:00,29.7,28.7,29.82,WNW,288,1.0,1.0,96,0.00,,,0.00,VWS V14.01,2013-11-14 13:30:00,
2013-11-14 07:35:00,30.2,29.2,29.81,WNW,288,1.0,1.0,96,0.00,,,0.00,VWS V14.01,2013-11-14 13:35:00,
2013-11-14 07:40:00,30.5,29.5,29.82,WNW,288,1.0,2.0,96,0.00,,,0.00,VWS V14.01,2013-11-14 13:40:00,
2013-11-14 07:45:00,30.8,29.8,29.82,WNW,288,1.0,2.0,96,0.00,,,0.00,VWS V14.01,2013-11-14 13:45:00,
2013-11-14 07:50:00,31.2,30.2,29.82,WNW,288,0.0,2.0,96,0.00,,,0.00,VWS V14.01,2013-11-14 13:50:00,
2013-11-14 07:55:00,31.5,30.5,29.82,WNW,288,1.0,2.0,96,0.00,,,0.00,VWS V14.01,2013-11-14 13:55:00,
2013-11-14 08:00:00,31.9,30.9,29.82,WNW,288,0.0,0.0,96,0.00,,,0.00,VWS V14.01,2013-11-14 14:00:00,
2013-11-14 08:05:00,32.4,31.4,29.82,WNW,288,0.0,2.0,96,0.00,,,0.00,VWS V14.01,2013-11-14 14:05:00,
2013-11-14 08:10:00,32.8,31.8,29.81,WNW,288,0.0,2.0,96,0.00,,,0.00,VWS V14.01,2013-11-14 14:10:00,
2013-11-14 08:16:00,33.0,32.0,29.82,WNW,288,0.0,2.0,96,0.00,,,0.00,VWS V14.01,2013-11-14 14:16:00,
2013-11-14 08:21:00,33.3,32.3,29.82,WNW,288,0.0,2.0,96,0.00,,,0.00,VWS V14.01,2013-11-14 14:21:00,
2013-11-14 08:26:00,33.5,32.2,29.82,WNW,288,0.0,2.0,95,0.00,,,0.00,VWS V14.01,2013-11-14 14:26:00,
2013-11-14 08:30:00,33.7,32.4,29.82,WNW,288,0.0,2.0,95,0.00,,,0.00,VWS V14.01,2013-11-14 14:30:00,
2013-11-14 08:31:00,33.8,32.5,29.82,WNW,288,1.0,1.0,95,0.00,,,0.00,VWS V14.01,2013-11-14 14:31:00,
2013-11-14 08:36:00,34.0,32.7,29.82,WNW,288,0.0,1.0,95,0.00,,,0.00,VWS V14.01,2013-11-14 14:36:00,
2013-11-14 08:41:00,34.3,33.0,29.81,WNW,288,0.0,1.0,95,0.00,,,0.00,VWS V14.01,2013-11-14 14:41:00,
2013-11-14 08:46:00,34.4,33.1,29.81,WNW,288,0.0,1.0,95,0.00,,,0.00,VWS V14.01,2013-11-14 14:46:00,
2013-11-14 08:47:00,34.5,33.2,29.81,WNW,288,1.0,1.0,95,0.00,,,0.00,VWS V14.01,2013-11-14 14:47:00,
2013-11-14 08:52:00,34.8,33.2,29.81,WNW,288,2.0,3.0,94,0.00,,,0.00,VWS V14.01,2013-11-14 14:52:00,
2013-11-14 08:57:00,34.9,33.1,29.81,WNW,288,0.0,3.0,93,0.00,,,0.00,VWS V14.01,2013-11-14 14:57:00,
2013-11-14 09:00:00,35.0,33.5,29.81,WNW,288,0.0,3.0,94,0.00,,,0.00,VWS V14.01,2013-11-14 15:00:00,
2013-11-14 09:02:00,35.1,33.5,29.81,WNW,288,1.0,1.0,94,0.00,,,0.00,VWS V14.01,2013-11-14 15:02:00,
2013-11-14 09:07:00,35.1,33.3,29.81,WNW,288,0.0,1.0,93,0.00,,,0.00,VWS V14.01,2013-11-14 15:07:00,
2013-11-14 09:12:00,35.3,33.5,29.81,WNW,288,2.0,2.0,93,0.00,,,0.00,VWS V14.01,2013-11-14 15:12:00,
2013-11-14 09:16:00,35.5,33.7,29.81,WNW,288,2.0,3.0,93,0.00,,,0.00,VWS V14.01,2013-11-14 15:16:00,
2013-11-14 09:21:00,35.8,33.7,29.81,WNW,288,1.0,3.0,92,0.00,,,0.00,VWS V14.01,2013-11-14 15:21:00,
2013-11-14 09:26:00,36.1,34.0,29.81,West,270,3.0,3.0,92,0.00,,,0.00,VWS V14.01,2013-11-14 15:26:00,
2013-11-14 09:30:00,36.4,34.3,29.80,SW,235,2.0,4.0,92,0.00,,,0.00,VWS V14.01,2013-11-14 15:30:00,
2013-11-14 09:31:00,36.4,34.3,29.80,SSW,205,3.0,4.0,92,0.00,,,0.00,VWS V14.01,2013-11-14 15:31:00,
2013-11-14 09:36:00,36.6,34.2,29.81,SW,236,3.0,4.0,91,0.00,,,0.00,VWS V14.01,2013-11-14 15:36:00,
2013-11-14 09:41:00,36.8,34.4,29.81,SW,229,2.0,5.0,91,0.00,,,0.00,VWS V14.01,2013-11-14 15:41:00,
2013-11-14 09:46:00,37.1,34.4,29.80,SW,234,2.0,5.0,90,0.00,,,0.00,VWS V14.01,2013-11-14 15:46:00,
2013-11-14 09:51:00,37.3,34.4,29.80,South,180,3.0,5.0,89,0.00,,,0.00,VWS V14.01,2013-11-14 15:51:00,
2013-11-14 09:56:00,37.5,34.6,29.80,SW,234,3.0,5.0,89,0.00,,,0.00,VWS V14.01,2013-11-14 15:56:00,
2013-11-14 10:00:00,37.8,34.8,29.80,SW,236,2.0,5.0,89,0.00,,,0.00,VWS V14.01,2013-11-14 16:00:00,
2013-11-14 10:01:00,37.9,35.0,29.80,SW,236,4.0,4.0,89,0.00,,,0.00,VWS V14.01,2013-11-14 16:01:00,
2013-11-14 10:06:00,37.9,34.7,29.81,WSW,244,2.0,4.0,88,0.00,,,0.00,VWS V14.01,2013-11-14 16:06:00,
2013-11-14 10:11:00,38.1,35.2,29.81,WSW,238,4.0,5.0,89,0.00,,,0.00,VWS V14.01,2013-11-14 16:11:00,
2013-11-14 10:16:00,38.5,35.3,29.82,West,268,3.0,5.0,88,0.00,,,0.00,VWS V14.01,2013-11-14 16:16:00,
2013-11-14 10:21:00,39.1,35.3,29.81,SSW,210,4.0,5.0,86,0.00,,,0.00,VWS V14.01,2013-11-14 16:21:00,
2013-11-14 10:26:00,39.3,35.5,29.82,SW,236,3.0,6.0,86,0.00,,,0.00,VWS V14.01,2013-11-14 16:26:00,
2013-11-14 10:30:00,39.5,35.7,29.82,WSW,244,3.0,6.0,86,0.00,,,0.00,VWS V14.01,2013-11-14 16:30:00,
2013-11-14 10:31:00,39.6,35.5,29.82,WSW,246,3.0,4.0,85,0.00,,,0.00,VWS V14.01,2013-11-14 16:31:00,
2013-11-14 10:36:00,40.2,35.8,29.81,SW,230,4.0,6.0,84,0.00,,,0.00,VWS V14.01,2013-11-14 16:36:00,
2013-11-14 10:41:00,40.7,36.2,29.82,SW,232,1.0,6.0,84,0.00,,,0.00,VWS V14.01,2013-11-14 16:41:00,
2013-11-14 10:46:00,41.4,36.0,29.82,SW,220,2.0,6.0,81,0.00,,,0.00,VWS V14.01,2013-11-14 16:46:00,
2013-11-14 10:51:00,41.4,36.0,29.81,SW,218,2.0,6.0,81,0.00,,,0.00,VWS V14.01,2013-11-14 16:51:00,
2013-11-14 10:56:00,41.0,36.2,29.81,West,268,1.0,6.0,83,0.00,,,0.00,VWS V14.01,2013-11-14 16:56:00,
2013-11-14 11:00:00,41.2,35.8,29.81,SW,235,4.0,6.0,81,0.00,,,0.00,VWS V14.01,2013-11-14 17:00:00,
2013-11-14 11:01:00,41.1,35.7,29.81,SW,235,3.0,4.0,81,0.00,,,0.00,VWS V14.01,2013-11-14 17:01:00,
2013-11-14 11:06:00,41.3,36.2,29.81,SSW,210,4.0,4.0,82,0.00,,,0.00,VWS V14.01,2013-11-14 17:06:00,
2013-11-14 11:11:00,41.6,36.2,29.80,SSE,154,2.0,5.0,81,0.00,,,0.00,VWS V14.01,2013-11-14 17:11:00,
2013-11-14 11:16:00,41.3,35.9,29.80,South,189,2.0,5.0,81,0.00,,,0.00,VWS V14.01,2013-11-14 17:16:00,
2013-11-14 11:21:00,41.4,36.0,29.80,SSW,212,3.0,5.0,81,0.00,,,0.00,VWS V14.01,2013-11-14 17:21:00,
2013-11-14 11:26:00,42.0,36.3,29.79,South,179,1.0,5.0,80,0.00,,,0.00,VWS V14.01,2013-11-14 17:26:00,
2013-11-14 11:30:00,42.2,36.2,29.79,SW,227,3.0,5.0,79,0.00,,,0.00,VWS V14.01,2013-11-14 17:30:00,
2013-11-14 11:31:00,42.2,36.2,29.79,SW,227,2.0,5.0,79,0.00,,,0.00,VWS V14.01,2013-11-14 17:31:00,
2013-11-14 11:36:00,42.4,36.7,29.79,WSW,238,4.0,5.0,80,0.00,,,0.00,VWS V14.01,2013-11-14 17:36:00,
2013-11-14 11:41:00,42.5,36.5,29.78,SSW,195,3.0,5.0,79,0.00,,,0.00,VWS V14.01,2013-11-14 17:41:00,
2013-11-14 11:46:00,42.7,36.3,29.78,SSE,148,4.0,7.0,78,0.00,,,0.00,VWS V14.01,2013-11-14 17:46:00,
2013-11-14 11:51:00,43.6,37.2,29.78,South,191,3.0,7.0,78,0.00,,,0.00,VWS V14.01,2013-11-14 17:51:00,
2013-11-14 11:56:00,44.0,36.6,29.78,SE,142,4.0,7.0,75,0.00,,,0.00,VWS V14.01,2013-11-14 17:56:00,
2013-11-14 12:00:00,43.4,36.3,29.78,SSE,161,5.0,7.0,76,0.00,,,0.00,VWS V14.01,2013-11-14 18:00:00,
2013-11-14 12:01:00,43.4,36.3,29.78,SSE,161,2.0,5.0,76,0.00,,,0.00,VWS V14.01,2013-11-14 18:01:00,
2013-11-14 12:06:00,44.4,37.0,29.78,South,184,4.0,6.0,75,0.00,,,0.00,VWS V14.01,2013-11-14 18:06:00,
2013-11-14 12:11:00,44.9,37.5,29.78,SSE,156,3.0,6.0,75,0.00,,,0.00,VWS V14.01,2013-11-14 18:11:00,
2013-11-14 12:16:00,45.4,37.3,29.77,South,182,3.0,10.0,73,0.00,,,0.00,VWS V14.01,2013-11-14 18:16:00,
2013-11-14 12:21:00,45.8,37.3,29.78,SE,140,8.0,10.0,72,0.00,,,0.00,VWS V14.01,2013-11-14 18:21:00,
2013-11-14 12:26:00,45.9,37.4,29.77,SE,128,5.0,10.0,72,0.00,,,0.00,VWS V14.01,2013-11-14 18:26:00,
2013-11-14 12:31:00,45.8,37.0,29.77,SE,144,6.0,7.0,71,0.00,,,0.00,VWS V14.01,2013-11-14 18:31:00,
2013-11-14 12:36:00,45.6,37.1,29.77,SE,138,5.0,9.0,72,0.00,,,0.00,VWS V14.01,2013-11-14 18:36:00,
2013-11-14 12:41:00,45.6,37.1,29.76,SSE,150,3.0,9.0,72,0.00,,,0.00,VWS V14.01,2013-11-14 18:41:00,
2013-11-14 12:46:00,46.6,37.3,29.76,SSE,167,4.0,9.0,70,0.00,,,0.00,VWS V14.01,2013-11-14 18:46:00,
2013-11-14 12:51:00,46.4,36.8,29.76,SE,129,7.0,9.0,69,0.00,,,0.00,VWS V14.01,2013-11-14 18:51:00,
2013-11-14 12:56:00,47.0,37.4,29.76,SE,127,5.0,9.0,69,0.00,,,0.00,VWS V14.01,2013-11-14 18:56:00,
2013-11-14 13:00:00,47.6,37.2,29.76,SE,138,3.0,9.0,67,0.00,,,0.00,VWS V14.01,2013-11-14 19:00:00,
2013-11-14 13:01:00,47.5,37.1,29.76,SSE,152,1.0,8.0,67,0.00,,,0.00,VWS V14.01,2013-11-14 19:01:00,
2013-11-14 13:06:00,48.3,37.5,29.75,SW,221,3.0,9.0,66,0.00,,,0.00,VWS V14.01,2013-11-14 19:06:00,
2013-11-14 13:11:00,47.8,37.0,29.75,SSE,167,4.0,9.0,66,0.00,,,0.00,VWS V14.01,2013-11-14 19:11:00,
2013-11-14 13:16:00,47.9,37.1,29.75,SE,142,4.0,10.0,66,0.00,,,0.00,VWS V14.01,2013-11-14 19:16:00,
2013-11-14 13:21:00,48.1,37.3,29.74,SE,143,8.0,10.0,66,0.00,,,0.00,VWS V14.01,2013-11-14 19:21:00,
2013-11-14 13:26:00,48.2,37.0,29.74,South,175,4.0,10.0,65,0.00,,,0.00,VWS V14.01,2013-11-14 19:26:00,
2013-11-14 13:30:00,49.2,37.6,29.74,South,190,3.0,10.0,64,0.00,,,0.00,VWS V14.01,2013-11-14 19:30:00,
2013-11-14 13:31:00,49.4,37.8,29.74,South,169,2.0,5.0,64,0.00,,,0.00,VWS V14.01,2013-11-14 19:31:00,
2013-11-14 13:36:00,50.2,37.7,29.74,SE,131,4.0,6.0,62,0.00,,,0.00,VWS V14.01,2013-11-14 19:36:00,
2013-11-14 13:41:00,49.8,36.9,29.74,WSW,253,3.0,9.0,61,0.00,,,0.00,VWS V14.01,2013-11-14 19:41:00,
2013-11-14 13:46:00,50.0,37.5,29.74,SSE,150,2.0,9.0,62,0.00,,,0.00,VWS V14.01,2013-11-14 19:46:00,
2013-11-14 13:51:00,50.5,37.2,29.74,South,184,5.0,9.0,60,0.00,,,0.00,VWS V14.01,2013-11-14 19:51:00,
2013-11-14 13:56:00,50.2,36.9,29.74,WSW,238,4.0,9.0,60,0.00,,,0.00,VWS V14.01,2013-11-14 19:56:00,
2013-11-14 14:00:00,50.7,37.3,29.74,WSW,238,4.0,9.0,60,0.00,,,0.00,VWS V14.01,2013-11-14 20:00:00,
2013-11-14 14:01:00,50.9,37.5,29.74,WSW,243,3.0,7.0,60,0.00,,,0.00,VWS V14.01,2013-11-14 20:01:00,
2013-11-14 14:06:00,51.5,37.2,29.74,WSW,256,4.0,8.0,58,0.00,,,0.00,VWS V14.01,2013-11-14 20:06:00,
2013-11-14 14:11:00,51.2,37.0,29.74,SW,215,5.0,9.0,58,0.00,,,0.00,VWS V14.01,2013-11-14 20:11:00,
2013-11-14 14:16:00,51.0,37.2,29.74,SSW,213,2.0,10.0,59,0.00,,,0.00,VWS V14.01,2013-11-14 20:16:00,
2013-11-14 14:21:00,51.2,37.0,29.74,West,268,3.0,10.0,58,0.00,,,0.00,VWS V14.01,2013-11-14 20:21:00,
2013-11-14 14:26:00,51.1,37.3,29.74,West,262,6.0,10.0,59,0.00,,,0.00,VWS V14.01,2013-11-14 20:26:00,
2013-11-14 14:31:00,50.9,37.1,29.74,WSW,254,4.0,6.0,59,0.00,,,0.00,VWS V14.01,2013-11-14 20:31:00,
2013-11-14 14:36:00,51.4,37.1,29.73,SW,230,5.0,7.0,58,0.00,,,0.00,VWS V14.01,2013-11-14 20:36:00,
2013-11-14 14:41:00,51.0,37.2,29.73,SSW,198,4.0,7.0,59,0.00,,,0.00,VWS V14.01,2013-11-14 20:41:00,
2013-11-14 14:46:00,50.9,37.1,29.73,SW,233,3.0,8.0,59,0.00,,,0.00,VWS V14.01,2013-11-14 20:46:00,
2013-11-14 14:51:00,51.0,37.2,29.73,WSW,254,2.0,8.0,59,0.00,,,0.00,VWS V14.01,2013-11-14 20:51:00,
2013-11-14 14:56:00,51.0,37.2,29.73,SW,227,5.0,8.0,59,0.00,,,0.00,VWS V14.01,2013-11-14 20:56:00,
2013-11-14 15:00:00,50.9,37.1,29.73,South,184,3.0,8.0,59,0.00,,,0.00,VWS V14.01,2013-11-14 21:00:00,
2013-11-14 15:01:00,50.9,37.1,29.73,SSW,211,4.0,6.0,59,0.00,,,0.00,VWS V14.01,2013-11-14 21:01:00,
2013-11-14 15:06:00,51.2,37.4,29.73,South,189,3.0,7.0,59,0.00,,,0.00,VWS V14.01,2013-11-14 21:06:00,
2013-11-14 15:11:00,51.1,37.3,29.73,South,191,3.0,7.0,59,0.00,,,0.00,VWS V14.01,2013-11-14 21:11:00,
2013-11-14 15:16:00,51.1,37.3,29.73,SSW,194,5.0,7.0,59,0.00,,,0.00,VWS V14.01,2013-11-14 21:16:00,
2013-11-14 15:21:00,50.9,37.1,29.73,South,185,3.0,8.0,59,0.00,,,0.00,VWS V14.01,2013-11-14 21:21:00,
2013-11-14 15:26:00,50.7,37.3,29.73,SW,219,4.0,8.0,60,0.00,,,0.00,VWS V14.01,2013-11-14 21:26:00,
2013-11-14 15:30:00,50.7,37.3,29.73,SW,214,5.0,8.0,60,0.00,,,0.00,VWS V14.01,2013-11-14 21:30:00,
2013-11-14 15:31:00,50.7,37.3,29.73,SW,216,6.0,6.0,60,0.00,,,0.00,VWS V14.01,2013-11-14 21:31:00,
2013-11-14 15:36:00,50.5,37.2,29.73,SSW,201,2.0,6.0,60,0.00,,,0.00,VWS V14.01,2013-11-14 21:36:00,
2013-11-14 15:41:00,50.3,37.4,29.73,SW,218,4.0,6.0,61,0.00,,,0.00,VWS V14.01,2013-11-14 21:41:00,
2013-11-14 15:46:00,50.2,37.3,29.73,SW,219,2.0,6.0,61,0.00,,,0.00,VWS V14.01,2013-11-14 21:46:00,
2013-11-14 15:51:00,49.8,37.3,29.73,SW,219,1.0,6.0,62,0.00,,,0.00,VWS V14.01,2013-11-14 21:51:00,
2013-11-14 15:56:00,49.6,37.1,29.73,SSW,199,6.0,7.0,62,0.00,,,0.00,VWS V14.01,2013-11-14 21:56:00,
2013-11-14 16:00:00,48.9,36.9,29.73,SSE,153,1.0,7.0,63,0.00,,,0.00,VWS V14.01,2013-11-14 22:00:00,
2013-11-14 16:01:00,48.8,36.8,29.73,SE,145,2.0,3.0,63,0.00,,,0.00,VWS V14.01,2013-11-14 22:01:00,
2013-11-14 16:06:00,48.2,37.0,29.73,SSE,152,0.0,3.0,65,0.00,,,0.00,VWS V14.01,2013-11-14 22:06:00,
2013-11-14 16:11:00,48.3,37.1,29.73,South,178,0.0,6.0,65,0.00,,,0.00,VWS V14.01,2013-11-14 22:11:00,
2013-11-14 16:16:00,47.9,36.7,29.73,SW,221,0.0,6.0,65,0.00,,,0.00,VWS V14.01,2013-11-14 22:16:00,
2013-11-14 16:21:00,47.1,36.3,29.73,SW,221,0.0,6.0,66,0.00,,,0.00,VWS V14.01,2013-11-14 22:21:00,
2013-11-14 16:26:00,46.7,36.3,29.73,SW,221,0.0,6.0,67,0.00,,,0.00,VWS V14.01,2013-11-14 22:26:00,
2013-11-14 16:30:00,46.3,36.3,29.73,SW,221,0.0,6.0,68,0.00,,,0.00,VWS V14.01,2013-11-14 22:30:00,
2013-11-14 16:31:00,46.3,36.3,29.73,SW,221,0.0,0.0,68,0.00,,,0.00,VWS V14.01,2013-11-14 22:31:00,
2013-11-14 16:36:00,45.6,36.0,29.73,SW,221,0.0,2.0,69,0.00,,,0.00,VWS V14.01,2013-11-14 22:36:00,
2013-11-14 16:41:00,45.4,36.2,29.73,SW,221,1.0,2.0,70,0.00,,,0.00,VWS V14.01,2013-11-14 22:41:00,
2013-11-14 16:46:00,44.9,36.1,29.74,SW,221,0.0,2.0,71,0.00,,,0.00,VWS V14.01,2013-11-14 22:46:00,
2013-11-14 16:50:00,44.7,36.2,29.74,SW,221,0.0,2.0,72,0.00,,,0.00,VWS V14.01,2013-11-14 22:50:00,
2013-11-14 16:55:00,44.7,36.2,29.74,SW,221,0.0,2.0,72,0.00,,,0.00,VWS V14.01,2013-11-14 22:55:00,
2013-11-14 17:00:00,44.4,36.0,29.74,SW,221,1.0,2.0,72,0.00,,,0.00,VWS V14.01,2013-11-14 23:00:00,
2013-11-14 17:05:00,44.0,35.9,29.74,SW,221,2.0,2.0,73,0.00,,,0.00,VWS V14.01,2013-11-14 23:05:00,
2013-11-14 17:10:00,43.7,36.0,29.74,SW,221,1.0,3.0,74,0.00,,,0.00,VWS V14.01,2013-11-14 23:10:00,
2013-11-14 17:15:00,43.5,35.8,29.75,SW,221,3.0,3.0,74,0.00,,,0.00,VWS V14.01,2013-11-14 23:15:00,
2013-11-14 17:20:00,43.6,36.2,29.75,SW,221,3.0,3.0,75,0.00,,,0.00,VWS V14.01,2013-11-14 23:20:00,
2013-11-14 17:25:00,43.7,36.3,29.75,SW,221,2.0,4.0,75,0.00,,,0.00,VWS V14.01,2013-11-14 23:25:00,
2013-11-14 17:30:00,43.7,36.0,29.75,SSW,205,2.0,2.0,74,0.00,,,0.00,VWS V14.01,2013-11-14 23:30:00,
2013-11-14 17:35:00,43.8,36.4,29.75,SSW,207,3.0,5.0,75,0.00,,,0.00,VWS V14.01,2013-11-14 23:35:00,
2013-11-14 17:40:00,44.1,36.4,29.75,SW,214,3.0,5.0,74,0.00,,,0.00,VWS V14.01,2013-11-14 23:40:00,
2013-11-14 17:45:00,44.2,36.5,29.75,SSW,212,2.0,5.0,74,0.00,,,0.00,VWS V14.01,2013-11-14 23:45:00,
2013-11-14 17:50:00,44.0,36.6,29.75,SSW,212,1.0,5.0,75,0.00,,,0.00,VWS V14.01,2013-11-14 23:50:00,
2013-11-14 17:55:00,43.7,36.3,29.76,SSW,212,1.0,5.0,75,0.00,,,0.00,VWS V14.01,2013-11-14 23:55:00,
2013-11-14 18:00:00,43.4,36.3,29.75,SSW,212,1.0,5.0,76,0.00,,,0.00,VWS V14.01,2013-11-15 00:00:00,
2013-11-14 18:05:00,43.3,36.3,29.76,SSW,212,0.0,2.0,76,0.00,,,0.00,VWS V14.01,2013-11-15 00:05:00,
2013-11-14 18:10:00,43.1,36.1,29.76,SSW,212,2.0,2.0,76,0.00,,,0.00,VWS V14.01,2013-11-15 00:10:00,
2013-11-14 18:15:00,42.9,36.2,29.76,SSW,212,0.0,2.0,77,0.00,,,0.00,VWS V14.01,2013-11-15 00:15:00,
2013-11-14 18:20:00,42.6,35.9,29.76,SSW,212,1.0,2.0,77,0.00,,,0.00,VWS V14.01,2013-11-15 00:20:00,
2013-11-14 18:25:00,42.7,36.0,29.76,SSW,212,0.0,2.0,77,0.00,,,0.00,VWS V14.01,2013-11-15 00:25:00,
2013-11-14 18:30:00,42.6,36.2,29.76,SSW,212,0.0,2.0,78,0.00,,,0.00,VWS V14.01,2013-11-15 00:30:00,
2013-11-14 18:35:00,41.6,35.3,29.76,SSW,212,1.0,2.0,78,0.00,,,0.00,VWS V14.01,2013-11-15 00:35:00,
2013-11-14 18:40:00,40.9,34.9,29.76,West,271,2.0,3.0,79,0.00,,,0.00,VWS V14.01,2013-11-15 00:40:00,
2013-11-14 18:45:00,40.0,35.0,29.76,West,271,0.0,3.0,82,0.00,,,0.00,VWS V14.01,2013-11-15 00:45:00,
2013-11-14 18:50:00,40.2,35.5,29.76,West,271,1.0,3.0,83,0.00,,,0.00,VWS V14.01,2013-11-15 00:50:00,
2013-11-14 18:55:00,41.0,35.9,29.76,West,271,1.0,3.0,82,0.00,,,0.00,VWS V14.01,2013-11-15 00:55:00,
2013-11-14 19:00:00,41.2,35.8,29.76,West,271,2.0,3.0,81,0.00,,,0.00,VWS V14.01,2013-11-15 01:00:00,
2013-11-14 19:05:00,41.2,35.8,29.76,West,271,0.0,2.0,81,0.00,,,0.00,VWS V14.01,2013-11-15 01:05:00,
2013-11-14 19:10:00,39.1,33.2,29.76,West,271,1.0,2.0,79,0.00,,,0.00,VWS V14.01,2013-11-15 01:10:00,
2013-11-14 19:15:00,38.1,33.7,29.76,West,271,0.0,2.0,84,0.00,,,0.00,VWS V14.01,2013-11-15 01:15:00,
2013-11-14 19:20:00,37.7,33.6,29.76,West,271,0.0,2.0,85,0.00,,,0.00,VWS V14.01,2013-11-15 01:20:00,
2013-11-14 19:25:00,37.3,33.5,29.76,West,271,0.0,2.0,86,0.00,,,0.00,VWS V14.01,2013-11-15 01:25:00,
2013-11-14 19:30:00,37.4,33.9,29.76,West,271,0.0,2.0,87,0.00,,,0.00,VWS V14.01,2013-11-15 01:30:00,
2013-11-14 19:35:00,37.1,33.3,29.77,West,271,1.0,2.0,86,0.00,,,0.00,VWS V14.01,2013-11-15 01:35:00,
2013-11-14 19:40:00,35.7,31.9,29.77,West,271,1.0,2.0,86,0.00,,,0.00,VWS V14.01,2013-11-15 01:40:00,
2013-11-14 19:45:00,34.1,30.6,29.77,West,271,1.0,2.0,87,0.00,,,0.00,VWS V14.01,2013-11-15 01:45:00,
2013-11-14 19:50:00,33.4,30.5,29.77,West,271,0.0,2.0,89,0.00,,,0.00,VWS V14.01,2013-11-15 01:50:00,
2013-11-14 19:55:00,33.9,31.6,29.77,West,271,1.0,2.0,91,0.00,,,0.00,VWS V14.01,2013-11-15 01:55:00,
2013-11-14 20:00:00,34.3,32.0,29.77,West,271,1.0,2.0,91,0.00,,,0.00,VWS V14.01,2013-11-15 02:00:00,
2013-11-14 20:05:00,34.8,32.5,29.77,West,271,0.0,1.0,91,0.00,,,0.00,VWS V14.01,2013-11-15 02:05:00,
2013-11-14 20:10:00,36.1,33.7,29.77,West,271,1.0,1.0,91,0.00,,,0.00,VWS V14.01,2013-11-15 02:10:00,
2013-11-14 20:15:00,36.3,33.4,29.77,West,271,1.0,2.0,89,0.00,,,0.00,VWS V14.01,2013-11-15 02:15:00,
2013-11-14 20:20:00,36.4,33.2,29.77,West,271,0.0,2.0,88,0.00,,,0.00,VWS V14.01,2013-11-15 02:20:00,
2013-11-14 20:25:00,35.0,31.5,29.77,West,271,0.0,2.0,87,0.00,,,0.00,VWS V14.01,2013-11-15 02:25:00,
2013-11-14 20:30:00,34.6,32.0,29.77,West,271,0.0,2.0,90,0.00,,,0.00,VWS V14.01,2013-11-15 02:30:00,
2013-11-14 20:35:00,34.4,31.8,29.77,West,271,0.0,1.0,90,0.00,,,0.00,VWS V14.01,2013-11-15 02:35:00,
2013-11-14 20:40:00,33.9,31.8,29.78,West,271,0.0,1.0,92,0.00,,,0.00,VWS V14.01,2013-11-15 02:40:00,
2013-11-14 20:45:00,33.8,32.0,29.78,West,271,0.0,2.0,93,0.00,,,0.00,VWS V14.01,2013-11-15 02:45:00,
2013-11-14 20:50:00,33.0,30.7,29.78,West,271,1.0,2.0,91,0.00,,,0.00,VWS V14.01,2013-11-15 02:50:00,
2013-11-14 20:55:00,32.2,29.9,29.79,West,271,0.0,2.0,91,0.00,,,0.00,VWS V14.01,2013-11-15 02:55:00,
2013-11-14 21:00:00,32.6,30.8,29.79,West,267,2.0,2.0,93,0.00,,,0.00,VWS V14.01,2013-11-15 03:00:00,
2013-11-14 21:05:00,33.7,31.6,29.79,West,272,1.0,1.0,92,0.00,,,0.00,VWS V14.01,2013-11-15 03:05:00,
2013-11-14 21:10:00,34.3,32.0,29.79,West,279,0.0,2.0,91,0.00,,,0.00,VWS V14.01,2013-11-15 03:10:00,
2013-11-14 21:15:00,34.6,32.2,29.79,West,279,0.0,2.0,91,0.00,,,0.00,VWS V14.01,2013-11-15 03:15:00,
2013-11-14 21:20:00,35.0,32.4,29.79,West,279,2.0,2.0,90,0.00,,,0.00,VWS V14.01,2013-11-15 03:20:00,
2013-11-14 21:25:00,35.7,32.8,29.79,West,279,0.0,2.0,89,0.00,,,0.00,VWS V14.01,2013-11-15 03:25:00,
2013-11-14 21:30:00,36.5,33.3,29.79,West,279,0.0,2.0,88,0.00,,,0.00,VWS V14.01,2013-11-15 03:30:00,
2013-11-14 21:35:00,36.6,33.1,29.79,West,279,0.0,1.0,87,0.00,,,0.00,VWS V14.01,2013-11-15 03:35:00,
2013-11-14 21:40:00,36.4,32.9,29.79,West,278,0.0,2.0,87,0.00,,,0.00,VWS V14.01,2013-11-15 03:40:00,
2013-11-14 21:45:00,36.8,33.6,29.79,West,278,1.0,2.0,88,0.00,,,0.00,VWS V14.01,2013-11-15 03:45:00,
2013-11-14 21:50:00,36.0,32.2,29.80,West,279,1.0,2.0,86,0.00,,,0.00,VWS V14.01,2013-11-15 03:50:00,
2013-11-14 21:55:00,35.2,32.0,29.80,West,279,1.0,2.0,88,0.00,,,0.00,VWS V14.01,2013-11-15 03:55:00,
2013-11-14 22:00:00,35.9,33.3,29.79,West,279,0.0,2.0,90,0.00,,,0.00,VWS V14.01,2013-11-15 04:00:00,
2013-11-14 22:05:00,36.5,33.6,29.79,West,279,0.0,0.0,89,0.00,,,0.00,VWS V14.01,2013-11-15 04:05:00,
2013-11-14 22:10:00,36.6,33.4,29.79,West,279,1.0,1.0,88,0.00,,,0.00,VWS V14.01,2013-11-15 04:10:00,
2013-11-14 22:15:00,35.9,32.4,29.80,West,279,0.0,2.0,87,0.00,,,0.00,VWS V14.01,2013-11-15 04:15:00,
2013-11-14 22:20:00,34.3,31.1,29.80,West,279,1.0,2.0,88,0.00,,,0.00,VWS V14.01,2013-11-15 04:20:00,
2013-11-14 22:25:00,33.6,31.3,29.80,West,279,0.0,2.0,91,0.00,,,0.00,VWS V14.01,2013-11-15 04:25:00,
2013-11-14 22:30:00,34.4,32.0,29.80,West,279,0.0,2.0,91,0.00,,,0.00,VWS V14.01,2013-11-15 04:30:00,
2013-11-14 22:34:00,34.9,32.5,29.80,West,279,0.0,0.0,91,0.00,,,0.00,VWS V14.01,2013-11-15 04:34:00,
2013-11-14 22:39:00,34.5,31.9,29.80,West,279,1.0,1.0,90,0.00,,,0.00,VWS V14.01,2013-11-15 04:39:00,
2013-11-14 22:44:00,32.8,29.9,29.80,West,278,2.0,2.0,89,0.00,,,0.00,VWS V14.01,2013-11-15 04:44:00,
2013-11-14 22:49:00,32.7,31.2,29.80,West,278,0.0,2.0,94,0.00,,,0.00,VWS V14.01,2013-11-15 04:49:00,
2013-11-14 22:54:00,32.6,30.8,29.80,West,278,0.0,2.0,93,0.00,,,0.00,VWS V14.01,2013-11-15 04:54:00,
2013-11-14 22:59:00,33.0,31.5,29.79,West,278,0.0,2.0,94,0.00,,,0.00,VWS V14.01,2013-11-15 04:59:00,
2013-11-14 23:00:00,33.1,31.6,29.79,West,278,1.0,2.0,94,0.00,,,0.00,VWS V14.01,2013-11-15 05:00:00,
2013-11-14 23:01:00,33.2,31.7,29.79,West,279,0.0,1.0,94,0.00,,,0.00,VWS V14.01,2013-11-15 05:01:00,
2013-11-14 23:02:00,33.4,31.9,29.79,West,278,1.0,1.0,94,0.00,,,0.00,VWS V14.01,2013-11-15 05:02:00,
2013-11-14 23:07:00,33.9,32.1,29.79,West,278,0.0,1.0,93,0.00,,,0.00,VWS V14.01,2013-11-15 05:07:00,
2013-11-14 23:13:00,33.8,32.0,29.79,West,278,0.0,1.0,93,0.00,,,0.00,VWS V14.01,2013-11-15 05:13:00,
2013-11-14 23:18:00,33.2,31.1,29.79,West,278,0.0,1.0,92,0.00,,,0.00,VWS V14.01,2013-11-15 05:18:00,
2013-11-14 23:23:00,32.4,30.6,29.79,West,279,0.0,1.0,93,0.00,,,0.00,VWS V14.01,2013-11-15 05:23:00,
2013-11-14 23:28:00,32.1,30.6,29.79,West,279,0.0,1.0,94,0.00,,,0.00,VWS V14.01,2013-11-15 05:28:00,
2013-11-14 23:30:00,31.3,29.5,29.79,West,278,0.0,1.0,93,0.00,,,0.00,VWS V14.01,2013-11-15 05:30:00,
2013-11-14 23:33:00,30.7,28.9,29.79,West,278,1.0,1.0,93,0.00,,,0.00,VWS V14.01,2013-11-15 05:33:00,
2013-11-14 23:38:00,29.6,27.8,29.79,West,279,0.0,2.0,93,0.00,,,0.00,VWS V14.01,2013-11-15 05:38:00,
2013-11-14 23:43:00,30.1,28.8,29.79,West,279,0.0,2.0,95,0.00,,,0.00,VWS V14.01,2013-11-15 05:43:00,
2013-11-14 23:48:00,30.5,29.5,29.79,West,279,0.0,2.0,96,0.00,,,0.00,VWS V14.01,2013-11-15 05:48:00,
2013-11-14 23:53:00,31.4,30.4,29.79,West,279,0.0,2.0,96,0.00,,,0.00,VWS V14.01,2013-11-15 05:53:00,
2013-11-14 23:58:00,32.0,31.0,29.79,West,279,0.0,2.0,96,0.00,,,0.00,VWS V14.01,2013-11-15 05:58:00,